createdAt,value
2019-05-16T00:00:49.587Z,8.69
2019-05-16T00:03:18.813Z,8.63
2019-05-16T00:05:54.050Z,8.37
2019-05-16T00:08:18.548Z,8.16
2019-05-16T00:10:48.704Z,7.99
2019-05-16T00:13:18.695Z,8.12
2019-05-16T00:15:48.173Z,8.17
2019-05-16T00:18:17.970Z,8.07
2019-05-16T00:20:49.108Z,8.18
2019-05-16T00:23:18.322Z,8.06
2019-05-16T00:25:47.825Z,8.19
2019-05-16T00:28:18.009Z,8.27
2019-05-16T00:30:48.720Z,8.01
2019-05-16T00:33:18.485Z,7.90
2019-05-16T00:35:48.216Z,8.05
2019-05-16T00:38:18.683Z,8.00
2019-05-16T00:40:48.692Z,7.94
2019-05-16T00:43:18.488Z,7.96
2019-05-16T00:45:48.658Z,7.90
2019-05-16T00:48:18.533Z,7.76
2019-05-16T00:50:48.139Z,7.79
2019-05-16T00:53:18.184Z,7.86
2019-05-16T00:55:48.023Z,7.86
2019-05-16T00:58:19.170Z,7.94
2019-05-16T01:00:50.411Z,8.01
2019-05-16T01:03:20.566Z,8.08
2019-05-16T01:05:50.116Z,7.98
2019-05-16T01:08:19.261Z,8.02
2019-05-16T01:10:51.490Z,8.21
2019-05-16T01:13:19.734Z,8.10
2019-05-16T01:15:48.912Z,8.04
2019-05-16T01:18:18.754Z,8.02
2019-05-16T01:20:48.496Z,8.09
2019-05-16T01:23:18.250Z,8.08
2019-05-16T01:25:48.290Z,8.08
2019-05-16T01:28:18.387Z,8.00
2019-05-16T01:30:48.818Z,8.10
2019-05-16T01:33:19.141Z,7.98
2019-05-16T01:35:49.179Z,7.85
2019-05-16T01:38:18.316Z,7.66
2019-05-16T01:40:49.102Z,7.85
2019-05-16T01:43:18.430Z,7.70
2019-05-16T01:45:48.757Z,7.63
2019-05-16T01:48:19.215Z,7.59
2019-05-16T01:50:48.619Z,7.61
2019-05-16T01:53:18.053Z,7.66
2019-05-16T01:55:48.817Z,7.72
2019-05-16T01:58:19.784Z,7.70
2019-05-16T02:01:03.207Z,7.71
2019-05-16T02:03:20.869Z,7.79
2019-05-16T02:05:49.922Z,7.83
2019-05-16T02:08:18.938Z,7.99
2019-05-16T02:10:48.129Z,7.94
2019-05-16T02:13:18.137Z,7.99
2019-05-16T02:15:48.863Z,8.10
2019-05-16T02:18:19.246Z,8.12
2019-05-16T02:20:48.364Z,8.12
2019-05-16T02:23:18.872Z,8.05
2019-05-16T02:25:49.241Z,8.10
2019-05-16T02:28:21.064Z,8.12
2019-05-16T02:30:51.405Z,8.06
2019-05-16T02:33:21.429Z,8.11
2019-05-16T02:35:55.359Z,8.10
2019-05-16T02:38:21.818Z,8.22
2019-05-16T02:40:54.845Z,8.16
2019-05-16T02:43:26.291Z,8.20
2019-05-16T02:45:52.372Z,8.16
2019-05-16T02:48:21.831Z,8.28
2019-05-16T02:50:51.715Z,8.23
2019-05-16T02:53:22.594Z,8.19
2019-05-16T02:55:52.227Z,8.17
2019-05-16T02:58:23.452Z,8.27
2019-05-16T03:00:52.381Z,8.32
2019-05-16T03:03:21.806Z,8.31
2019-05-16T03:05:52.037Z,8.26
2019-05-16T03:08:22.957Z,8.24
2019-05-16T03:10:53.115Z,8.27
2019-05-16T03:13:23.148Z,8.13
2019-05-16T03:15:52.211Z,8.21
2019-05-16T03:18:24.066Z,8.29
2019-05-16T03:20:55.095Z,8.24
2019-05-16T03:23:24.313Z,8.29
2019-05-16T03:25:53.324Z,8.21
2019-05-16T03:28:22.573Z,8.05
2019-05-16T03:30:54.759Z,8.10
2019-05-16T03:33:30.845Z,8.03
2019-05-16T03:35:55.457Z,8.10
2019-05-16T03:38:24.460Z,8.22
2019-05-16T03:40:53.566Z,8.14
2019-05-16T03:43:22.617Z,8.29
2019-05-16T03:45:52.335Z,8.32
2019-05-16T03:48:21.754Z,8.39
2019-05-16T03:50:51.169Z,8.29
2019-05-16T03:53:21.188Z,8.40
2019-05-16T03:55:51.803Z,8.30
2019-05-16T03:58:22.566Z,8.41
2019-05-16T04:00:55.047Z,8.34
2019-05-16T04:03:28.555Z,8.18
2019-05-16T04:05:55.619Z,8.09
2019-05-16T04:08:25.685Z,8.07
2019-05-16T04:10:55.302Z,8.04
2019-05-16T04:13:24.709Z,8.15
2019-05-16T04:15:53.795Z,8.24
2019-05-16T04:18:23.127Z,8.26
2019-05-16T04:20:52.943Z,8.39
2019-05-16T04:23:22.166Z,8.63
2019-05-16T04:25:53.077Z,8.44
2019-05-16T04:28:23.479Z,8.53
2019-05-16T04:30:52.992Z,8.70
2019-05-16T04:33:22.695Z,8.56
2019-05-16T04:35:53.062Z,8.65
2019-05-16T04:38:34.895Z,8.65
2019-05-16T04:40:53.575Z,8.50
2019-05-16T04:43:22.909Z,8.77
2019-05-16T04:45:52.994Z,8.77
2019-05-16T04:48:23.118Z,8.70
2019-05-16T04:50:52.764Z,8.71
2019-05-16T04:53:22.365Z,8.82
2019-05-16T04:55:52.341Z,8.82
2019-05-16T04:58:23.221Z,9.00
2019-05-16T05:00:53.336Z,8.90
2019-05-16T05:03:23.026Z,8.91
2019-05-16T05:05:52.222Z,8.91
2019-05-16T05:08:22.485Z,8.89
2019-05-16T05:10:52.268Z,8.81
2019-05-16T05:13:22.436Z,8.78
2019-05-16T05:15:52.362Z,9.04
2019-05-16T05:18:25.718Z,9.20
2019-05-16T05:20:56.003Z,9.14
2019-05-16T05:23:24.978Z,9.44
2019-05-16T05:25:53.999Z,9.12
2019-05-16T05:28:24.687Z,9.02
2019-05-16T05:30:53.717Z,8.92
2019-05-16T05:33:22.737Z,9.30
2019-05-16T05:35:51.786Z,9.33
2019-05-16T05:38:21.687Z,9.52
2019-05-16T05:40:51.663Z,9.59
2019-05-16T05:43:21.775Z,9.68
2019-05-16T05:45:51.774Z,9.64
2019-05-16T05:48:21.948Z,9.58
2019-05-16T05:50:51.659Z,9.56
2019-05-16T05:53:21.186Z,9.83
2019-05-16T05:55:51.790Z,9.88
2019-05-16T05:58:21.827Z,9.79
2019-05-16T06:00:52.112Z,10.33
2019-05-16T06:03:22.721Z,10.38
2019-05-16T06:05:52.430Z,10.23
2019-05-16T06:08:21.573Z,10.20
2019-05-16T06:10:50.784Z,10.59
2019-05-16T06:13:21.096Z,10.54
2019-05-16T06:15:51.279Z,10.44
2019-05-16T06:18:20.740Z,10.81
2019-05-16T06:20:51.279Z,10.88
2019-05-16T06:23:21.135Z,11.04
2019-05-16T06:25:51.043Z,10.68
2019-05-16T06:28:21.216Z,10.62
2019-05-16T06:30:51.531Z,10.40
2019-05-16T06:33:21.378Z,10.86
2019-05-16T06:35:51.436Z,10.79
2019-05-16T06:38:21.505Z,11.04
2019-05-16T06:40:52.717Z,11.16
2019-05-16T06:43:21.552Z,11.06
2019-05-16T06:45:51.407Z,10.69
2019-05-16T06:48:21.518Z,11.03
2019-05-16T06:50:52.098Z,11.41
2019-05-16T06:53:21.506Z,11.43
2019-05-16T06:55:50.602Z,11.16
2019-05-16T06:58:22.163Z,11.48
2019-05-16T07:00:52.350Z,11.49
2019-05-16T07:03:21.542Z,11.20
2019-05-16T07:05:51.222Z,11.38
2019-05-16T07:08:21.222Z,11.35
2019-05-16T07:10:51.276Z,11.35
2019-05-16T07:13:20.396Z,11.20
2019-05-16T07:15:50.384Z,11.37
2019-05-16T07:18:20.866Z,11.40
2019-05-16T07:20:51.369Z,11.88
2019-05-16T07:23:21.368Z,11.77
2019-05-16T07:25:51.148Z,12.21
2019-05-16T07:28:21.107Z,12.49
2019-05-16T07:30:50.924Z,12.66
2019-05-16T07:33:21.221Z,12.80
2019-05-16T07:35:51.587Z,12.77
2019-05-16T07:38:20.984Z,12.76
2019-05-16T07:40:51.268Z,12.67
2019-05-16T07:43:21.083Z,12.57
2019-05-16T07:45:51.379Z,12.43
2019-05-16T07:48:21.968Z,12.24
2019-05-16T07:50:52.417Z,12.55
2019-05-16T07:53:21.763Z,12.50
2019-05-16T07:55:51.244Z,12.50
2019-05-16T07:58:22.122Z,12.40
2019-05-16T08:01:01.907Z,12.41
2019-05-16T08:03:22.162Z,12.52
2019-05-16T08:05:51.784Z,12.33
2019-05-16T08:08:24.379Z,12.63
2019-05-16T08:10:52.456Z,12.59
2019-05-16T08:13:21.748Z,12.79
2019-05-16T08:15:51.213Z,12.72
2019-05-16T08:18:21.403Z,12.75
2019-05-16T08:20:52.602Z,12.72
2019-05-16T08:23:22.922Z,12.63
2019-05-16T08:25:52.331Z,12.70
2019-05-16T08:28:22.048Z,12.81
2019-05-16T08:30:52.853Z,12.90
2019-05-16T08:33:22.341Z,12.97
2019-05-16T08:35:51.933Z,13.01
2019-05-16T08:38:21.860Z,13.12
2019-05-16T08:41:08.100Z,13.11
2019-05-16T08:43:22.331Z,13.09
2019-05-16T08:45:51.852Z,13.22
2019-05-16T08:48:23.453Z,13.23
2019-05-16T08:50:54.619Z,13.39
2019-05-16T08:53:23.696Z,13.33
2019-05-16T08:55:52.677Z,13.07
2019-05-16T08:58:22.901Z,13.25
2019-05-16T09:00:56.273Z,13.19
2019-05-16T09:03:22.978Z,13.17
2019-05-16T09:08:22.814Z,12.43
2019-05-16T09:10:30.922Z,12.88
2019-05-16T09:11:01.722Z,12.47
2019-05-16T09:13:22.874Z,12.70
2019-05-16T09:15:51.901Z,12.66
2019-05-16T09:18:20.937Z,12.77
2019-05-16T09:20:50.672Z,12.87
2019-05-16T09:23:19.933Z,12.86
2019-05-16T09:25:49.351Z,12.91
2019-05-16T09:28:18.676Z,13.14
2019-05-16T09:30:47.719Z,13.46
2019-05-16T09:33:17.770Z,13.32
2019-05-16T09:35:48.015Z,13.28
2019-05-16T09:38:23.238Z,13.15
2019-05-16T09:40:48.585Z,13.28
2019-05-16T09:43:18.365Z,13.22
2019-05-16T09:45:47.644Z,13.46
2019-05-16T09:48:18.818Z,13.11
2019-05-16T09:50:48.627Z,12.99
2019-05-16T09:53:17.748Z,13.44
2019-05-16T09:55:47.382Z,13.85
2019-05-16T09:58:18.367Z,13.67
2019-05-16T10:00:48.052Z,13.79
2019-05-16T10:03:22.341Z,13.95
2019-05-16T10:05:48.674Z,13.87
2019-05-16T10:08:17.970Z,13.86
2019-05-16T10:10:47.162Z,14.05
2019-05-16T10:13:18.360Z,14.18
2019-05-16T10:15:47.534Z,14.19
2019-05-16T10:18:17.077Z,14.25
2019-05-16T10:20:46.257Z,13.85
2019-05-16T10:23:17.965Z,13.82
2019-05-16T10:25:47.992Z,13.93
2019-05-16T10:28:19.787Z,14.05
2019-05-16T10:30:50.060Z,13.85
2019-05-16T10:33:19.412Z,14.20
2019-05-16T10:35:48.831Z,14.31
2019-05-16T10:38:17.955Z,14.47
2019-05-16T10:40:47.695Z,14.93
2019-05-16T10:43:17.393Z,15.23
2019-05-16T10:45:46.729Z,14.68
2019-05-16T10:48:17.670Z,15.61
2019-05-16T10:50:47.743Z,15.84
2019-05-16T10:53:43.072Z,15.44
2019-05-16T10:55:48.063Z,15.40
2019-05-16T10:58:35.070Z,15.28
2019-05-16T11:01:13.934Z,15.38
2019-05-16T11:03:18.693Z,15.71
2019-05-16T11:06:01.677Z,16.19
2019-05-16T11:08:19.095Z,17.11
2019-05-16T11:10:48.233Z,17.43
2019-05-16T11:13:20.249Z,17.06
2019-05-16T11:15:48.485Z,16.49
2019-05-16T11:18:17.909Z,16.00
2019-05-16T11:20:49.118Z,16.73
2019-05-16T11:23:23.371Z,16.33
2019-05-16T11:25:48.607Z,16.48
2019-05-16T11:28:18.048Z,16.89
2019-05-16T11:30:49.659Z,17.22
2019-05-16T11:33:18.566Z,16.40
2019-05-16T11:35:47.887Z,16.90
2019-05-16T11:38:17.887Z,16.46
2019-05-16T11:40:47.615Z,16.49
2019-05-16T11:43:21.431Z,16.55
2019-05-16T11:45:48.285Z,16.22
2019-05-16T11:48:17.376Z,16.68
2019-05-16T11:50:48.052Z,16.91
2019-05-16T11:53:17.729Z,16.82
2019-05-16T11:55:54.549Z,16.55
2019-05-16T11:58:18.340Z,16.89
2019-05-16T12:00:48.314Z,17.22
2019-05-16T12:03:17.671Z,17.56
2019-05-16T12:05:47.984Z,17.66
2019-05-16T12:08:17.819Z,17.29
2019-05-16T12:10:47.289Z,17.48
2019-05-16T12:13:27.660Z,17.46
2019-05-16T12:15:47.636Z,17.64
2019-05-16T12:18:17.279Z,17.84
2019-05-16T12:20:46.734Z,18.22
2019-05-16T12:23:17.130Z,17.90
2019-05-16T12:25:47.619Z,17.52
2019-05-16T12:28:17.311Z,18.01
2019-05-16T12:30:47.182Z,18.15
2019-05-16T12:33:18.848Z,17.92
2019-05-16T12:35:47.743Z,18.00
2019-05-16T12:38:17.424Z,17.89
2019-05-16T12:40:47.887Z,18.16
2019-05-16T12:43:18.132Z,18.27
2019-05-16T12:45:47.592Z,18.27
2019-05-16T12:48:20.220Z,18.60
2019-05-16T12:50:48.367Z,18.27
2019-05-16T12:53:17.857Z,18.39
2019-05-16T12:55:47.539Z,18.84
2019-05-16T12:58:25.057Z,18.99
2019-05-16T13:00:54.161Z,19.14
2019-05-16T13:03:19.578Z,19.38
2019-05-16T13:05:48.608Z,18.90
2019-05-16T13:08:17.965Z,18.17
2019-05-16T13:10:47.354Z,18.55
2019-05-16T13:13:17.770Z,18.41
2019-05-16T13:15:47.491Z,19.03
2019-05-16T13:18:17.190Z,19.88
2019-05-16T13:20:46.965Z,19.69
2019-05-16T13:23:18.349Z,19.10
2019-05-16T13:25:48.045Z,18.68
2019-05-16T13:28:17.577Z,18.29
2019-05-16T13:30:47.215Z,18.49
2019-05-16T13:33:17.793Z,18.64
2019-05-16T13:35:47.415Z,19.19
2019-05-16T13:38:17.530Z,19.10
2019-05-16T13:40:47.071Z,18.90
2019-05-16T13:43:17.513Z,18.68
2019-05-16T13:45:47.418Z,18.22
2019-05-16T13:48:17.308Z,17.93
2019-05-16T13:50:47.332Z,17.92
2019-05-16T13:53:16.715Z,17.96
2019-05-16T13:55:45.788Z,18.00
2019-05-16T13:58:17.650Z,18.15
2019-05-16T14:00:48.092Z,18.29
2019-05-16T14:03:17.882Z,18.25
2019-05-16T14:05:47.776Z,18.12
2019-05-16T14:08:17.336Z,18.24
2019-05-16T14:10:48.472Z,17.95
2019-05-16T14:13:17.135Z,18.00
2019-05-16T14:15:47.254Z,17.72
2019-05-16T14:18:17.628Z,17.85
2019-05-16T14:20:47.012Z,17.65
2019-05-16T14:23:17.582Z,18.10
2019-05-16T14:25:48.057Z,17.89
2019-05-16T14:28:17.852Z,17.74
2019-05-16T14:30:47.089Z,17.92
2019-05-16T14:33:17.178Z,17.73
2019-05-16T14:35:47.393Z,17.25
2019-05-16T14:38:17.591Z,17.09
2019-05-16T14:40:50.236Z,17.14
2019-05-16T14:43:17.826Z,17.31
2019-05-16T14:45:46.966Z,17.42
2019-05-16T14:48:18.425Z,17.08
2019-05-16T14:50:47.252Z,16.79
2019-05-16T14:53:18.002Z,16.43
2019-05-16T14:55:47.745Z,16.37
2019-05-16T14:58:16.982Z,16.14
2019-05-16T15:00:49.164Z,16.12
2019-05-16T15:03:18.054Z,16.08
2019-05-16T15:05:48.116Z,16.12
2019-05-16T15:08:18.157Z,15.99
2019-05-16T15:10:47.630Z,15.83
2019-05-16T15:13:17.524Z,15.78
2019-05-16T15:15:46.989Z,15.77
2019-05-16T15:18:17.670Z,15.42
2019-05-16T15:20:47.152Z,15.47
2019-05-16T15:23:17.508Z,15.40
2019-05-16T15:25:47.042Z,15.39
2019-05-16T15:28:17.219Z,15.42
2019-05-16T15:30:47.030Z,15.40
2019-05-16T15:33:19.655Z,15.30
2019-05-16T15:35:47.356Z,15.19
2019-05-16T15:38:16.771Z,15.17
2019-05-16T15:40:48.213Z,15.20
2019-05-16T15:43:18.224Z,15.37
2019-05-16T15:45:52.182Z,15.34
2019-05-16T15:48:18.305Z,15.11
2019-05-16T15:50:47.473Z,15.35
2019-05-16T15:53:17.634Z,15.11
2019-05-16T15:55:47.541Z,15.13
2019-05-16T15:58:18.011Z,15.16
2019-05-16T16:00:49.687Z,15.10
2019-05-16T16:03:19.369Z,15.05
2019-05-16T16:05:48.381Z,14.80
2019-05-16T16:08:18.366Z,14.71
2019-05-16T16:10:48.678Z,14.71
2019-05-16T16:13:19.723Z,14.79
2019-05-16T16:15:53.939Z,14.79
2019-05-16T16:18:21.855Z,14.70
2019-05-16T16:20:51.291Z,14.57
2019-05-16T16:23:20.363Z,14.38
2019-05-16T16:25:51.097Z,14.32
2019-05-16T16:28:20.289Z,14.25
2019-05-16T16:30:49.407Z,14.40
2019-05-16T16:33:25.338Z,14.43
2019-05-16T16:35:49.194Z,14.48
2019-05-16T16:38:18.297Z,14.40
2019-05-16T16:40:48.129Z,14.53
2019-05-16T16:43:17.299Z,14.53
2019-05-16T16:45:47.959Z,14.53
2019-05-16T16:48:17.690Z,14.54
2019-05-16T16:50:46.832Z,14.66
2019-05-16T16:53:17.644Z,14.62
2019-05-16T16:55:47.567Z,14.63
2019-05-16T16:58:17.690Z,14.49
2019-05-16T17:00:47.929Z,14.41
2019-05-16T17:03:17.483Z,14.36
2019-05-16T17:05:46.656Z,14.16
2019-05-16T17:08:16.856Z,14.02
2019-05-16T17:10:47.636Z,13.87
2019-05-16T17:13:17.110Z,13.90
2019-05-16T17:15:47.315Z,13.79
2019-05-16T17:18:17.497Z,13.80
2019-05-16T17:20:47.736Z,13.71
2019-05-16T17:23:17.462Z,13.69
2019-05-16T17:25:47.314Z,13.72
2019-05-16T17:28:17.389Z,13.47
2019-05-16T17:30:47.295Z,13.40
2019-05-16T17:33:18.239Z,13.55
2019-05-16T17:35:49.031Z,13.58
2019-05-16T17:38:18.840Z,13.62
2019-05-16T17:40:48.366Z,13.66
2019-05-16T17:43:17.890Z,13.50
2019-05-16T17:45:47.243Z,13.57
2019-05-16T17:48:17.543Z,13.50
2019-05-16T17:50:47.769Z,13.60
2019-05-16T17:53:17.543Z,13.65
2019-05-16T17:55:47.394Z,13.54
2019-05-16T17:58:17.037Z,13.61
2019-05-16T18:00:47.153Z,13.29
2019-05-16T18:03:17.538Z,13.45
2019-05-16T18:05:47.689Z,13.45
2019-05-16T18:08:17.007Z,13.42
2019-05-16T18:10:47.119Z,13.31
2019-05-16T18:13:17.257Z,13.33
2019-05-16T18:15:47.289Z,13.45
2019-05-16T18:18:17.736Z,13.53
2019-05-16T18:20:55.843Z,13.55
2019-05-16T18:23:17.981Z,13.50
2019-05-16T18:25:47.227Z,13.41
2019-05-16T18:28:17.495Z,13.39
2019-05-16T18:30:47.366Z,13.43
2019-05-16T18:33:16.806Z,13.37
2019-05-16T18:35:47.045Z,13.39
2019-05-16T18:38:16.189Z,13.35
2019-05-16T18:40:47.353Z,13.32
2019-05-16T18:43:16.607Z,13.23
2019-05-16T18:45:47.163Z,13.30
2019-05-16T18:48:16.460Z,13.23
2019-05-16T18:50:47.753Z,13.30
2019-05-16T18:53:17.819Z,13.29
2019-05-16T18:55:47.449Z,13.27
2019-05-16T18:58:17.933Z,13.30
2019-05-16T19:00:47.776Z,13.20
2019-05-16T19:03:16.874Z,13.14
2019-05-16T19:05:46.342Z,13.20
2019-05-16T19:08:16.320Z,13.18
2019-05-16T19:10:47.355Z,13.16
2019-05-16T19:13:16.960Z,13.16
2019-05-16T19:15:46.576Z,13.06
2019-05-16T19:18:17.152Z,13.15
2019-05-16T19:20:48.851Z,13.17
2019-05-16T19:23:17.620Z,13.17
2019-05-16T19:25:47.405Z,13.20
2019-05-16T19:28:16.946Z,13.18
2019-05-16T19:30:46.618Z,12.05
2019-05-16T19:33:17.421Z,13.14
2019-05-16T19:35:48.911Z,13.09
2019-05-16T19:38:17.454Z,13.10
2019-05-16T19:40:47.010Z,12.97
2019-05-16T19:43:17.462Z,12.92
2019-05-16T19:45:47.031Z,12.97
2019-05-16T19:48:17.411Z,12.97
2019-05-16T19:50:46.892Z,13.02
2019-05-16T19:53:16.558Z,12.96
2019-05-16T19:55:47.042Z,12.93
2019-05-16T19:58:16.544Z,12.86
2019-05-16T20:00:46.535Z,12.74
2019-05-16T20:03:16.660Z,12.63
2019-05-16T20:05:47.601Z,12.63
2019-05-16T20:08:17.602Z,12.53
2019-05-16T20:10:47.720Z,12.37
2019-05-16T20:13:17.304Z,12.43
2019-05-16T20:15:47.160Z,12.34
2019-05-16T20:18:18.518Z,12.30
2019-05-16T20:20:47.322Z,12.33
2019-05-16T20:23:18.471Z,12.34
2019-05-16T20:25:47.146Z,12.30
2019-05-16T20:28:18.471Z,12.30
2019-05-16T20:30:47.546Z,12.33
2019-05-16T20:33:17.976Z,12.28
2019-05-16T20:35:47.573Z,12.25
2019-05-16T20:38:17.318Z,12.26
2019-05-16T20:40:47.046Z,12.16
2019-05-16T20:43:16.816Z,12.21
2019-05-16T20:45:47.593Z,11.96
2019-05-16T20:48:18.590Z,11.91
2019-05-16T20:50:49.264Z,11.77
2019-05-16T20:53:18.555Z,11.65
2019-05-16T20:55:49.539Z,11.72
2019-05-16T20:58:18.534Z,11.81
2019-05-16T21:00:49.754Z,11.76
2019-05-16T21:03:18.309Z,11.67
2019-05-16T21:05:48.229Z,11.65
2019-05-16T21:08:17.400Z,11.63
2019-05-16T21:10:46.546Z,11.57
2019-05-16T21:13:17.298Z,11.46
2019-05-16T21:15:47.683Z,11.47
2019-05-16T21:18:16.936Z,11.52
2019-05-16T21:20:47.019Z,11.40
2019-05-16T21:23:19.390Z,11.50
2019-05-16T21:25:47.410Z,11.54
2019-05-16T21:28:19.482Z,11.45
2019-05-16T21:30:47.495Z,11.40
2019-05-16T21:33:18.718Z,11.40
2019-05-16T21:35:47.496Z,11.36
2019-05-16T21:38:16.769Z,11.28
2019-05-16T21:40:46.283Z,11.42
2019-05-16T21:43:16.803Z,11.38
2019-05-16T21:45:47.419Z,11.34
2019-05-16T21:48:19.298Z,11.17
2019-05-16T21:50:47.431Z,11.26
2019-05-16T21:53:17.741Z,11.35
2019-05-16T21:55:47.321Z,11.26
2019-05-16T21:58:16.578Z,11.28
2019-05-16T22:00:48.684Z,11.37
2019-05-16T22:03:18.086Z,11.35
2019-05-16T22:05:47.632Z,11.33
2019-05-16T22:08:16.970Z,11.39
2019-05-16T22:10:46.892Z,11.32
2019-05-16T22:13:16.160Z,11.25
2019-05-16T22:15:46.370Z,11.28
2019-05-16T22:18:16.576Z,11.29
2019-05-16T22:20:48.898Z,11.32
2019-05-16T22:23:17.461Z,11.13
2019-05-16T22:25:49.165Z,11.26
2019-05-16T22:28:17.592Z,11.22
2019-05-16T22:30:46.813Z,11.05
2019-05-16T22:33:17.885Z,11.04
2019-05-16T22:35:49.488Z,11.05
2019-05-16T22:38:17.624Z,11.00
2019-05-16T22:40:46.687Z,10.89
2019-05-16T22:43:17.371Z,11.01
2019-05-16T22:45:46.851Z,10.83
2019-05-16T22:48:17.244Z,10.92
2019-05-16T22:50:46.823Z,10.90
2019-05-16T22:53:17.180Z,10.87
2019-05-16T22:55:47.817Z,10.77
2019-05-16T22:58:17.250Z,10.83
2019-05-16T23:00:47.211Z,10.73
2019-05-16T23:03:17.372Z,10.70
2019-05-16T23:05:47.656Z,10.62
2019-05-16T23:08:16.713Z,10.54
2019-05-16T23:10:45.796Z,10.58
2019-05-16T23:13:16.839Z,10.57
2019-05-16T23:15:45.672Z,10.51
2019-05-16T23:18:17.102Z,10.47
2019-05-16T23:20:47.355Z,10.51
2019-05-16T23:23:17.375Z,10.43
2019-05-16T23:25:46.901Z,10.37
2019-05-16T23:28:16.759Z,10.38
2019-05-16T23:30:47.100Z,10.33
2019-05-16T23:33:16.438Z,10.31
2019-05-16T23:35:46.883Z,10.34
2019-05-16T23:38:19.864Z,10.35
2019-05-16T23:40:47.084Z,10.29
2019-05-16T23:43:16.160Z,10.32
2019-05-16T23:45:46.942Z,10.39
2019-05-16T23:48:16.639Z,10.33
2019-05-16T23:50:47.487Z,10.40
2019-05-16T23:53:16.553Z,10.36
2019-05-16T23:55:47.152Z,10.28
2019-05-16T23:58:16.719Z,10.27
